Time;durP1;ratioP1;P1;durP2;ratioP2;P2;SDS_P1;SDS_P2;PMS_P1;PMS_P2;Temp;Humidity;BMP_temperature;BMP_pressure;BME280_temperature;BME280_humidity;BME280_pressure;Samples;Min_cycle;Max_cycle;Signal;HPM_P1;HPM_P2
2023/10/27 04:02:31;;;;;;;0.50;0.10;;;12.30;1.00;;;;;;4965795;23;20503;-71
2023/10/27 04:04:59;;;;;;;0.50;0.10;;;12.30;1.00;;;;;;4915536;29;20474;-71
2023/10/27 04:07:27;;;;;;;0.50;0.10;;;12.30;1.00;;;;;;4915861;29;20535;-71
2023/10/27 04:09:55;;;;;;;0.50;0.30;;;12.20;1.00;;;;;;4915510;29;20446;-70
2023/10/27 04:12:23;;;;;;;0.60;0.27;;;12.20;1.00;;;;;;4899658;29;20471;-71
2023/10/27 04:14:50;;;;;;;0.53;0.20;;;12.20;1.00;;;;;;4885353;29;20612;-72
2023/10/27 04:17:18;;;;;;;1.30;1.20;;;12.20;1.00;;;;;;4904788;29;20470;-73
2023/10/27 04:19:47;;;;;;;0.50;0.10;;;12.00;1.00;;;;;;4896560;29;20482;-70
2023/10/27 04:22:15;;;;;;;0.50;0.10;;;12.00;1.00;;;;;;4897326;29;20586;-72
2023/10/27 04:24:43;;;;;;;0.50;0.10;;;12.10;1.00;;;;;;4896399;29;20506;-73
2023/10/27 04:27:12;;;;;;;1.37;1.07;;;12.10;1.00;;;;;;4898481;29;20492;-72
2023/10/27 04:29:40;;;;;;;0.50;0.10;;;12.10;1.00;;;;;;4900341;29;20914;-72
2023/10/27 04:32:08;;;;;;;0.50;0.10;;;12.10;1.00;;;;;;4903211;29;20567;-73
2023/10/27 04:34:36;;;;;;;1.03;0.40;;;12.10;1.00;;;;;;4900675;29;20494;-73
2023/10/27 04:37:05;;;;;;;0.60;0.20;;;12.10;1.00;;;;;;4905183;29;20465;-73
2023/10/27 04:39:33;;;;;;;3.13;0.40;;;12.10;1.00;;;;;;4896769;29;20459;-73
2023/10/27 04:42:01;;;;;;;0.50;0.10;;;12.10;1.00;;;;;;4896079;29;20469;-72
2023/10/27 04:44:29;;;;;;;0.50;0.10;;;12.10;1.00;;;;;;4895406;29;20976;-72
2023/10/27 04:46:57;;;;;;;0.50;0.10;;;12.20;1.00;;;;;;4896872;29;20466;-72
2023/10/27 04:49:27;;;;;;;0.50;0.10;;;12.20;1.00;;;;;;4896292;29;20510;-72
2023/10/27 04:51:55;;;;;;;0.83;0.67;;;12.20;1.00;;;;;;4896799;29;20478;-73
2023/10/27 04:54:24;;;;;;;0.50;0.20;;;12.20;1.00;;;;;;4897266;29;20550;-73
2023/10/27 04:56:52;;;;;;;13.33;2.43;;;12.10;1.00;;;;;;4897309;29;20467;-73
2023/10/27 04:59:21;;;;;;;0.50;0.10;;;12.00;1.00;;;;;;4897527;29;20494;-73
2023/10/27 05:01:49;;;;;;;0.50;0.10;;;12.00;1.00;;;;;;4896008;29;20529;-73
2023/10/27 05:04:17;;;;;;;0.50;0.20;;;12.10;1.00;;;;;;4896537;29;20451;-73
2023/10/27 05:06:45;;;;;;;0.50;0.10;;;12.10;1.00;;;;;;4896087;29;20460;-72
2023/10/27 05:09:13;;;;;;;0.50;0.20;;;12.20;1.00;;;;;;4897235;29;20455;-72
2023/10/27 05:11:42;;;;;;;0.50;0.10;;;12.20;1.00;;;;;;4896537;29;20512;-72
2023/10/27 05:14:10;;;;;;;0.50;0.10;;;12.30;1.00;;;;;;4896483;29;20457;-72
2023/10/27 05:16:38;;;;;;;0.50;0.10;;;12.30;1.00;;;;;;4899397;29;20580;-72
2023/10/27 05:19:06;;;;;;;0.50;0.10;;;12.30;1.00;;;;;;4900624;29;20458;-72
2023/10/27 05:21:34;;;;;;;0.50;0.20;;;12.30;1.00;;;;;;4900063;29;20474;-72
2023/10/27 05:24:02;;;;;;;0.60;0.30;;;12.30;1.00;;;;;;4899185;29;20494;-72
2023/10/27 05:26:30;;;;;;;1.10;0.67;;;12.20;1.00;;;;;;4899658;29;20474;-72
2023/10/27 05:29:00;;;;;;;0.50;0.10;;;12.20;1.00;;;;;;4898473;29;20554;-71
2023/10/27 05:31:27;;;;;;;0.50;0.10;;;12.20;1.00;;;;;;4896687;29;20479;-73
2023/10/27 05:33:56;;;;;;;0.50;0.10;;;12.20;1.00;;;;;;4895602;29;20966;-73
2023/10/27 05:36:23;;;;;;;0.50;0.10;;;12.30;1.00;;;;;;4897209;29;20593;-73
2023/10/27 05:38:51;;;;;;;0.50;0.20;;;12.20;1.00;;;;;;4903209;29;20484;-73
2023/10/27 05:41:19;;;;;;;0.50;0.17;;;12.30;1.00;;;;;;4895799;29;20549;-73
2023/10/27 05:43:50;;;;;;;0.50;0.10;;;12.30;1.00;;;;;;4900462;29;20468;-74
2023/10/27 05:46:19;;;;;;;0.50;0.10;;;12.30;1.00;;;;;;4900487;29;20549;-72
2023/10/27 05:48:49;;;;;;;0.50;0.10;;;12.30;1.00;;;;;;4900552;29;20548;-73
2023/10/27 05:51:17;;;;;;;0.50;0.10;;;12.40;1.00;;;;;;4900233;29;21068;-72
2023/10/27 05:53:45;;;;;;;0.50;0.10;;;12.40;1.00;;;;;;4900070;29;22436;-72
2023/10/27 05:56:13;;;;;;;0.50;0.10;;;12.40;1.00;;;;;;4899939;29;20514;-68
2023/10/27 05:58:41;;;;;;;4.40;2.00;;;12.50;1.00;;;;;;4899753;29;20548;-72
2023/10/27 06:01:08;;;;;;;1.80;1.07;;;12.60;1.00;;;;;;4898939;29;20573;-72
2023/10/27 06:03:38;;;;;;;0.70;0.50;;;12.60;1.00;;;;;;4898269;29;20460;-69
2023/10/27 06:06:06;;;;;;;0.50;0.10;;;12.70;1.00;;;;;;4899633;29;20268;-72
2023/10/27 06:08:35;;;;;;;0.50;0.10;;;12.50;1.00;;;;;;4899732;29;20496;-72
2023/10/27 06:11:03;;;;;;;0.50;0.10;;;12.50;1.00;;;;;;4903166;29;20540;-73
2023/10/27 06:13:31;;;;;;;0.50;0.10;;;12.40;1.00;;;;;;4899389;29;20481;-73
2023/10/27 06:15:59;;;;;;;0.50;0.10;;;12.40;1.00;;;;;;4899391;29;20482;-73
2023/10/27 06:18:27;;;;;;;0.50;0.10;;;;;;;;;;4898541;29;20515;-68
2023/10/27 06:20:56;;;;;;;2.33;2.23;;;12.50;1.00;;;;;;4898092;29;20575;-71
2023/10/27 06:23:25;;;;;;;0.93;0.93;;;12.50;1.00;;;;;;4902969;29;20463;-73
2023/10/27 06:25:53;;;;;;;4.97;4.67;;;12.50;1.00;;;;;;4904100;29;20460;-72
2023/10/27 06:28:21;;;;;;;3.23;2.87;;;12.50;1.00;;;;;;4888992;29;20523;-72
2023/10/27 06:30:49;;;;;;;0.80;0.60;;;;;;;;;;4891428;29;20474;-73
2023/10/27 06:33:17;;;;;;;0.50;0.10;;;12.50;1.00;;;;;;4892683;29;20451;-73
2023/10/27 06:35:47;;;;;;;0.50;0.10;;;12.50;1.00;;;;;;4888626;29;20508;-71
2023/10/27 06:38:17;;;;;;;0.50;0.10;;;;;;;;;;4880893;29;20827;-73
2023/10/27 06:40:45;;;;;;;0.60;0.30;;;12.50;1.00;;;;;;4880427;29;20607;-71
2023/10/27 06:43:12;;;;;;;0.50;0.10;;;12.50;1.00;;;;;;4888755;29;20470;-72
2023/10/27 06:45:40;;;;;;;2.10;1.53;;;12.50;1.00;;;;;;4899290;29;20517;-71
2023/10/27 06:48:09;;;;;;;0.50;0.10;;;12.50;1.00;;;;;;4883710;29;20550;-72
2023/10/27 06:50:36;;;;;;;0.50;0.10;;;12.50;1.00;;;;;;4899129;29;20476;-73
2023/10/27 06:53:04;;;;;;;0.60;0.10;;;12.90;1.00;;;;;;4888362;29;20463;-73
2023/10/27 06:55:34;;;;;;;0.50;0.10;;;12.50;1.00;;;;;;4880161;29;20826;-71
2023/10/27 06:58:03;;;;;;;0.50;0.10;;;12.50;1.00;;;;;;4880283;29;20955;-72
2023/10/27 07:00:32;;;;;;;0.70;0.40;;;12.60;1.00;;;;;;4879484;29;20475;-72
2023/10/27 07:03:00;;;;;;;0.50;0.10;;;12.50;1.00;;;;;;4886420;29;20493;-73
2023/10/27 07:05:36;;;;;;;0.50;0.20;;;12.50;1.00;;;;;;4879807;29;20454;-72
2023/10/27 07:08:05;;;;;;;0.50;0.10;;;12.50;1.00;;;;;;4879760;29;20513;-72
2023/10/27 07:10:35;;;;;;;0.50;0.40;;;12.60;1.00;;;;;;4879553;29;20498;-73
2023/10/27 07:13:03;;;;;;;0.50;0.10;;;12.70;1.00;;;;;;4886064;29;20482;-72
2023/10/27 07:15:31;;;;;;;0.50;0.10;;;12.60;1.00;;;;;;4880243;29;20451;-73
2023/10/27 07:17:59;;;;;;;0.50;0.10;;;12.70;1.00;;;;;;4880432;29;21036;-72
2023/10/27 07:20:27;;;;;;;0.50;0.20;;;12.70;1.00;;;;;;4879748;29;20460;-72
2023/10/27 07:22:55;;;;;;;0.50;0.10;;;12.60;1.00;;;;;;4893164;29;20515;-72
2023/10/27 07:25:23;;;;;;;0.50;0.10;;;12.60;1.00;;;;;;4880804;29;20485;-72
2023/10/27 07:27:55;;;;;;;0.50;0.13;;;12.60;1.00;;;;;;4880305;29;20941;-73
2023/10/27 07:30:23;;;;;;;0.80;0.20;;;12.70;1.00;;;;;;4881209;29;21047;-72
2023/10/27 07:32:51;;;;;;;0.50;0.10;;;12.60;1.00;;;;;;4892301;29;20452;-73
2023/10/27 07:35:19;;;;;;;0.50;0.10;;;12.70;1.00;;;;;;4891880;29;20460;-73
2023/10/27 07:37:46;;;;;;;0.50;0.10;;;12.70;1.00;;;;;;4892338;29;20491;-72
2023/10/27 07:40:15;;;;;;;0.50;0.17;;;12.70;1.00;;;;;;4890956;29;20470;-73
2023/10/27 07:42:43;;;;;;;0.50;0.10;;;12.70;1.00;;;;;;4887272;29;20464;-72
2023/10/27 07:45:13;;;;;;;0.50;0.10;;;;;;;;;;4892504;29;20522;-73
2023/10/27 07:47:41;;;;;;;0.50;0.10;;;12.80;1.00;;;;;;4883305;29;20451;-73
2023/10/27 07:50:09;;;;;;;0.50;0.10;;;12.80;1.00;;;;;;4880770;29;20573;-72
2023/10/27 07:52:39;;;;;;;0.50;0.10;;;12.90;1.00;;;;;;4891973;29;20556;-71
2023/10/27 07:55:07;;;;;;;0.50;0.10;;;12.80;1.00;;;;;;4890230;29;20456;-73
2023/10/27 07:57:36;;;;;;;0.50;0.10;;;12.80;1.00;;;;;;4898072;29;20497;-72
2023/10/27 08:00:09;;;;;;;0.50;0.10;;;12.80;1.00;;;;;;4891506;29;20466;-72
2023/10/27 08:02:39;;;;;;;0.50;0.10;;;12.80;1.00;;;;;;4892481;29;20475;-72
2023/10/27 08:05:07;;;;;;;0.60;0.37;;;12.90;1.00;;;;;;4879414;29;20458;-73
2023/10/27 08:07:38;;;;;;;0.50;0.10;;;12.90;1.00;;;;;;4881274;29;20608;-71
2023/10/27 08:10:07;;;;;;;0.50;0.10;;;;;;;;;;4878469;29;20952;-73
2023/10/27 08:12:36;;;;;;;0.50;0.20;;;12.90;1.00;;;;;;4881772;29;20580;-71
2023/10/27 08:15:05;;;;;;;0.50;0.10;;;12.90;1.00;;;;;;4889874;29;20476;-74
2023/10/27 08:17:34;;;;;;;0.50;0.20;;;12.90;1.00;;;;;;4896837;29;20566;-72
2023/10/27 08:20:03;;;;;;;0.50;0.10;;;12.80;1.00;;;;;;4898021;29;20459;-71
2023/10/27 08:22:32;;;;;;;0.50;0.10;;;12.70;1.00;;;;;;4890699;29;20535;-73
2023/10/27 08:25:01;;;;;;;0.50;0.10;;;12.60;1.00;;;;;;4886917;29;20464;-73
2023/10/27 08:27:30;;;;;;;0.50;0.20;;;12.60;1.00;;;;;;4887952;29;20506;-72
2023/10/27 08:29:58;;;;;;;0.50;0.20;;;12.50;1.00;;;;;;4888065;29;20504;-74
2023/10/27 08:32:29;;;;;;;0.50;0.20;;;12.60;1.00;;;;;;4890137;29;20503;-73
2023/10/27 08:34:57;;;;;;;0.50;0.10;;;12.60;1.00;;;;;;4888700;29;20940;-73
2023/10/27 08:37:26;;;;;;;0.50;0.20;;;12.60;1.00;;;;;;4893551;29;21008;-72
2023/10/27 08:39:54;;;;;;;0.50;0.10;;;12.40;1.00;;;;;;4886818;29;20479;-73
2023/10/27 08:42:22;;;;;;;0.50;0.10;;;12.50;1.00;;;;;;4894426;29;20481;-71
2023/10/27 08:44:50;;;;;;;0.50;0.10;;;12.40;1.00;;;;;;4889653;29;20450;-73
2023/10/27 08:47:19;;;;;;;0.50;0.10;;;12.40;1.00;;;;;;4883188;29;20487;-72
2023/10/27 08:49:47;;;;;;;0.50;0.10;;;12.40;1.00;;;;;;4895628;29;20822;-73
2023/10/27 08:52:16;;;;;;;0.50;0.10;;;12.50;1.00;;;;;;4897086;29;20481;-75
2023/10/27 08:54:46;;;;;;;1.63;1.20;;;12.50;1.00;;;;;;4897392;29;20478;-72
2023/10/27 08:57:14;;;;;;;0.50;0.10;;;12.50;1.00;;;;;;4896747;29;20491;-74
2023/10/27 08:59:42;;;;;;;0.70;0.50;;;12.50;1.00;;;;;;4897145;29;20530;-73
2023/10/27 09:02:14;;;;;;;0.60;0.30;;;;;;;;;;4896656;29;20487;-74
2023/10/27 09:04:43;;;;;;;0.50;0.10;;;12.50;1.00;;;;;;4897093;29;20547;-73
2023/10/27 09:07:11;;;;;;;0.50;0.10;;;12.50;1.00;;;;;;4897141;29;20480;-73
2023/10/27 09:09:40;;;;;;;0.50;0.10;;;12.40;1.00;;;;;;4889793;29;20469;-72
2023/10/27 09:12:11;;;;;;;0.50;0.10;;;12.40;1.00;;;;;;4897251;29;20847;-73
2023/10/27 09:14:39;;;;;;;0.70;0.63;;;12.40;1.00;;;;;;4900955;29;20463;-72
2023/10/27 09:17:08;;;;;;;1.40;1.30;;;12.40;1.00;;;;;;4885078;29;20518;-72
2023/10/27 09:19:37;;;;;;;0.50;0.10;;;12.40;1.00;;;;;;4899357;29;20490;-73
2023/10/27 09:22:15;;;;;;;2.40;1.57;;;12.30;1.00;;;;;;4890675;29;20486;-72
2023/10/27 09:24:43;;;;;;;1.10;0.60;;;12.30;1.00;;;;;;4895807;29;20490;-72
2023/10/27 09:27:13;;;;;;;0.50;0.20;;;12.20;1.00;;;;;;4895826;29;20455;-72
2023/10/27 09:29:42;;;;;;;0.50;0.10;;;12.20;1.00;;;;;;4896181;29;20556;-72
2023/10/27 09:32:24;;;;;;;0.50;0.10;;;12.30;1.00;;;;;;4895489;29;20485;-73
2023/10/27 09:35:09;;;;;;;1.67;1.57;;;12.30;1.00;;;;;;4895119;29;20457;-73
2023/10/27 09:37:38;;;;;;;0.50;0.10;;;12.30;1.00;;;;;;4896780;29;20487;-75
2023/10/27 09:40:09;;;;;;;0.97;0.30;;;12.20;1.00;;;;;;4897281;29;20450;-75
2023/10/27 09:42:38;;;;;;;0.50;0.10;;;12.10;1.00;;;;;;4881177;29;20489;-73
2023/10/27 09:45:11;;;;;;;1.27;0.30;;;12.00;1.00;;;;;;4889831;29;20505;-73
2023/10/27 09:47:46;;;;;;;0.50;0.10;;;12.00;1.00;;;;;;4896231;29;20519;-72
2023/10/27 09:50:16;;;;;;;0.50;0.10;;;11.90;1.00;;;;;;4896278;29;20449;-72
2023/10/27 09:52:45;;;;;;;0.60;0.20;;;12.00;1.00;;;;;;4887249;29;20458;-75
2023/10/27 09:55:14;;;;;;;0.83;0.30;;;11.90;1.00;;;;;;4890100;29;20452;-73
2023/10/27 09:57:45;;;;;;;0.50;0.10;;;12.00;1.00;;;;;;4895895;29;20542;-72
2023/10/27 10:00:16;;;;;;;1.00;0.53;;;12.10;1.00;;;;;;4896891;29;20487;-73
2023/10/27 10:02:45;;;;;;;0.50;0.10;;;12.10;1.00;;;;;;4898910;29;20544;-74
2023/10/27 10:05:13;;;;;;;1.47;1.23;;;;;;;;;;4899077;29;21094;-75
2023/10/27 10:07:43;;;;;;;1.07;0.57;;;12.00;1.00;;;;;;4898512;29;20465;-75
2023/10/27 10:10:29;;;;;;;0.50;0.10;;;12.00;1.00;;;;;;4898887;29;20474;-74
2023/10/27 10:13:08;;;;;;;6.77;0.60;;;12.00;1.00;;;;;;4899231;29;20451;-73
2023/10/27 10:15:36;;;;;;;0.60;0.37;;;12.00;1.00;;;;;;4899096;29;20451;-73
2023/10/27 10:18:06;;;;;;;0.50;0.20;;;12.00;1.00;;;;;;4900615;29;20493;-73
2023/10/27 10:20:58;;;;;;;0.70;0.30;;;12.00;1.00;;;;;;4893000;29;20999;-74
2023/10/27 10:24:17;;;;;;;0.50;0.20;;;12.10;1.00;;;;;;4880040;29;20532;-74
2023/10/27 10:27:10;;;;;;;0.50;0.20;;;12.10;1.00;;;;;;4896628;29;20477;-73
2023/10/27 10:29:40;;;;;;;0.70;0.40;;;12.00;1.00;;;;;;4898646;29;20462;-72
2023/10/27 10:32:30;;;;;;;0.60;0.30;;;12.10;1.00;;;;;;4898914;29;20506;-73
2023/10/27 10:35:21;;;;;;;2.20;1.70;;;11.90;1.00;;;;;;4899055;29;20457;-73
2023/10/27 10:37:51;;;;;;;0.70;0.50;;;12.00;1.00;;;;;;4895844;29;20493;-74
2023/10/27 10:40:26;;;;;;;0.50;0.10;;;12.10;1.00;;;;;;4885587;29;20456;-74
2023/10/27 10:43:20;;;;;;;0.50;0.10;;;12.20;1.00;;;;;;4894699;29;20919;-73
2023/10/27 10:45:53;;;;;;;2.83;0.97;;;12.40;1.00;;;;;;4897037;29;20973;-75
2023/10/27 10:48:22;;;;;;;0.50;0.10;;;12.50;1.00;;;;;;4898732;29;20497;-73
2023/10/27 10:50:51;;;;;;;0.50;0.20;;;12.70;1.00;;;;;;4889800;29;20522;-73
2023/10/27 10:53:24;;;;;;;0.50;0.20;;;12.60;1.00;;;;;;4928776;23;20851;-69
2023/10/27 10:55:58;;;;;;;0.50;0.30;;;12.80;1.00;;;;;;4914452;29;20456;-68
2023/10/27 10:58:27;;;;;;;0.50;0.10;;;12.80;1.00;;;;;;4916973;29;20577;-70
2023/10/27 11:00:58;;;;;;;0.60;0.60;;;12.80;1.00;;;;;;4905799;29;20537;-69
2023/10/27 11:03:28;;;;;;;0.60;0.40;;;12.80;1.00;;;;;;4898298;29;20562;-70
2023/10/27 11:05:59;;;;;;;0.50;0.10;;;12.80;1.00;;;;;;4900294;29;20493;-70
2023/10/27 11:08:29;;;;;;;4.83;1.63;;;13.00;1.00;;;;;;4899409;29;20452;-71
2023/10/27 11:11:04;;;;;;;0.87;0.83;;;13.00;1.00;;;;;;4898931;29;21035;-71
2023/10/27 11:13:33;;;;;;;0.53;0.30;;;13.10;1.00;;;;;;4897671;29;20475;-70
2023/10/27 11:16:13;;;;;;;0.60;0.30;;;13.10;1.00;;;;;;4892335;29;20544;-71
2023/10/27 11:18:41;;;;;;;0.50;0.20;;;13.20;1.00;;;;;;4886058;29;20507;-71
2023/10/27 11:21:15;;;;;;;0.70;0.53;;;13.20;1.00;;;;;;4897188;29;20459;-72
2023/10/27 11:23:43;;;;;;;0.60;0.50;;;13.10;1.00;;;;;;4896996;29;20506;-71
2023/10/27 11:26:11;;;;;;;0.70;0.43;;;13.20;1.00;;;;;;4894924;29;20467;-71
2023/10/27 11:28:40;;;;;;;0.70;0.47;;;13.20;1.00;;;;;;4896720;29;20942;-71
2023/10/27 11:31:12;;;;;;;0.50;0.10;;;13.10;1.00;;;;;;4896510;29;20558;-71
2023/10/27 11:33:57;;;;;;;0.50;0.20;;;13.10;1.00;;;;;;4894533;29;20561;-71
2023/10/27 11:36:25;;;;;;;0.60;0.30;;;13.20;1.00;;;;;;4892175;29;20443;-72
2023/10/27 11:38:53;;;;;;;0.50;0.20;;;13.30;99.90;;;;;;4896795;29;20518;-71
2023/10/27 11:41:21;;;;;;;0.50;0.20;;;13.20;99.90;;;;;;4896058;29;20790;-71
2023/10/27 11:43:49;;;;;;;0.80;0.40;;;13.20;99.90;;;;;;4893067;29;20476;-71
2023/10/27 11:46:19;;;;;;;0.70;0.20;;;13.30;99.90;;;;;;4890961;29;20448;-71
2023/10/27 11:48:48;;;;;;;1.07;0.27;;;13.30;1.00;;;;;;4897572;29;20460;-71
2023/10/27 11:51:16;;;;;;;0.50;0.10;;;13.40;1.00;;;;;;4896848;29;20918;-72
2023/10/27 11:53:45;;;;;;;0.60;0.20;;;13.50;1.00;;;;;;4896553;29;20488;-72
2023/10/27 11:56:13;;;;;;;0.50;0.20;;;13.50;1.00;;;;;;4896886;29;20546;-72
2023/10/27 11:58:41;;;;;;;0.57;0.10;;;13.60;1.00;;;;;;4892106;29;20495;-71
2023/10/27 12:01:08;;;;;;;0.60;0.30;;;13.60;99.90;;;;;;4896912;29;20450;-71
2023/10/27 12:03:38;;;;;;;0.50;0.10;;;13.60;99.90;;;;;;4896851;29;20472;-70
2023/10/27 12:06:06;;;;;;;0.57;0.10;;;13.70;99.90;;;;;;4896554;29;20971;-71
2023/10/27 12:08:34;;;;;;;0.60;0.20;;;13.80;99.90;;;;;;4896578;29;20443;-72
2023/10/27 12:11:03;;;;;;;0.50;0.10;;;14.00;99.90;;;;;;4896727;29;20450;-71
2023/10/27 12:13:31;;;;;;;0.60;0.10;;;14.10;99.90;;;;;;4896842;29;20470;-71
2023/10/27 12:15:59;;;;;;;0.60;0.10;;;14.20;99.90;;;;;;4896260;29;20460;-71
2023/10/27 12:18:28;;;;;;;1.00;0.30;;;14.10;99.90;;;;;;4896286;29;20536;-72
2023/10/27 12:20:57;;;;;;;3.27;0.83;;;14.00;99.90;;;;;;4896331;29;20981;-70
2023/10/27 12:23:24;;;;;;;0.60;0.10;;;14.10;99.90;;;;;;4896554;29;20915;-73
2023/10/27 12:25:52;;;;;;;0.57;0.20;;;14.20;99.90;;;;;;4895991;29;20951;-71
2023/10/27 12:28:22;;;;;;;3.27;0.53;;;14.20;99.90;;;;;;4896316;29;20947;-70
2023/10/27 12:30:51;;;;;;;0.67;0.30;;;14.10;99.90;;;;;;4895925;29;20444;-71
2023/10/27 12:33:19;;;;;;;0.80;0.33;;;14.10;99.90;;;;;;4895782;29;20578;-70
2023/10/27 12:35:49;;;;;;;0.60;0.10;;;;;;;;;;4893453;29;20878;-70
2023/10/27 12:38:18;;;;;;;1.37;0.33;;;14.20;99.90;;;;;;4896342;29;20456;-71
2023/10/27 12:40:47;;;;;;;2.50;1.23;;;14.20;99.90;;;;;;4895472;29;20891;-71
2023/10/27 12:43:15;;;;;;;4.53;1.27;;;14.30;99.90;;;;;;4895162;29;21097;-70
2023/10/27 12:45:43;;;;;;;0.60;0.10;;;14.30;99.90;;;;;;4895321;29;20986;-72
2023/10/27 12:48:11;;;;;;;0.60;0.20;;;14.50;99.90;;;;;;4896702;29;20450;-72
2023/10/27 12:50:39;;;;;;;0.60;0.10;;;14.50;99.90;;;;;;4895483;29;20449;-71
2023/10/27 12:53:08;;;;;;;1.00;0.30;;;14.60;99.90;;;;;;4894672;29;20972;-73
2023/10/27 12:55:37;;;;;;;0.60;0.17;;;14.70;99.90;;;;;;4895622;29;20457;-71
2023/10/27 12:58:08;;;;;;;0.60;0.17;;;14.90;99.90;;;;;;4895941;29;20520;-70
2023/10/27 13:00:37;;;;;;;3.13;0.83;;;14.90;99.90;;;;;;4895528;29;20488;-71
2023/10/27 13:03:05;;;;;;;0.60;0.20;;;14.90;99.90;;;;;;4895826;29;20512;-71
2023/10/27 13:05:35;;;;;;;0.60;0.20;;;14.80;99.90;;;;;;4896129;29;20452;-71
2023/10/27 13:08:04;;;;;;;0.90;0.70;;;14.70;99.90;;;;;;4896320;29;20462;-72
2023/10/27 13:10:32;;;;;;;1.13;0.33;;;14.60;99.90;;;;;;4896073;29;21126;-71
2023/10/27 13:13:01;;;;;;;1.53;1.00;;;14.50;99.90;;;;;;4894942;29;20995;-71
2023/10/27 13:15:33;;;;;;;0.60;0.20;;;14.60;99.90;;;;;;4890173;29;20555;-72
2023/10/27 13:18:03;;;;;;;2.63;0.47;;;14.50;99.90;;;;;;4878450;29;20466;-71
2023/10/27 13:20:31;;;;;;;0.83;0.40;;;14.40;99.90;;;;;;4890121;29;20520;-72
2023/10/27 13:23:00;;;;;;;1.70;0.53;;;14.40;99.90;;;;;;4894633;29;20841;-72
2023/10/27 13:25:28;;;;;;;0.60;0.20;;;14.30;99.90;;;;;;4877387;29;20493;-73
2023/10/27 13:27:56;;;;;;;0.93;0.30;;;14.40;99.90;;;;;;4876730;29;20492;-70
2023/10/27 13:30:26;;;;;;;1.60;1.27;;;14.40;99.90;;;;;;4877347;29;20458;-71
2023/10/27 13:32:54;;;;;;;0.60;0.10;;;;;;;;;;4886713;29;20486;-71
2023/10/27 13:35:22;;;;;;;0.83;0.37;;;14.40;99.90;;;;;;4895973;29;20464;-72
2023/10/27 13:37:53;;;;;;;0.60;0.10;;;14.50;99.90;;;;;;4898517;29;20448;-71
2023/10/27 13:40:21;;;;;;;0.60;0.20;;;14.50;99.90;;;;;;4899004;29;20491;-71
2023/10/27 13:42:49;;;;;;;0.60;0.40;;;14.40;99.90;;;;;;4898401;29;21029;-72
2023/10/27 13:45:17;;;;;;;1.20;0.83;;;14.40;99.90;;;;;;4898824;29;20864;-71
2023/10/27 13:47:46;;;;;;;0.70;0.33;;;14.40;99.90;;;;;;4898977;29;20516;-70
2023/10/27 13:50:14;;;;;;;0.60;0.20;;;14.30;99.90;;;;;;4895423;29;20490;-71
2023/10/27 13:52:44;;;;;;;1.33;0.50;;;14.20;99.90;;;;;;4887524;29;20571;-71
2023/10/27 13:55:12;;;;;;;0.70;0.37;;;14.10;99.90;;;;;;4898903;29;20443;-72
2023/10/27 13:57:42;;;;;;;0.60;0.17;;;14.10;99.90;;;;;;4899585;29;21022;-70
2023/10/27 14:00:11;;;;;;;0.60;0.20;;;14.10;99.90;;;;;;4898335;29;20492;-71
2023/10/27 14:02:41;;;;;;;0.70;0.40;;;14.10;99.90;;;;;;4898879;29;20553;-71
2023/10/27 14:05:12;;;;;;;1.63;1.23;;;14.00;99.90;;;;;;4899570;29;20826;-71
2023/10/27 14:07:40;;;;;;;1.13;0.87;;;14.10;99.90;;;;;;4902678;29;20460;-69
2023/10/27 14:10:09;;;;;;;1.17;0.40;;;14.10;99.90;;;;;;4906631;29;20448;-72
2023/10/27 14:12:38;;;;;;;0.70;0.40;;;;;;;;;;4908311;29;20820;-70
2023/10/27 14:15:07;;;;;;;2.93;0.70;;;13.90;99.90;;;;;;4905844;29;20460;-71
2023/10/27 14:17:35;;;;;;;0.60;0.10;;;13.90;99.90;;;;;;4898648;29;21085;-72
2023/10/27 14:20:05;;;;;;;0.80;0.60;;;13.90;99.90;;;;;;4898894;29;21007;-70
2023/10/27 14:22:34;;;;;;;0.60;0.20;;;13.80;99.90;;;;;;4894934;29;20551;-71
2023/10/27 14:25:05;;;;;;;0.70;0.50;;;13.70;99.90;;;;;;4898977;29;20456;-71
2023/10/27 14:27:33;;;;;;;0.60;0.27;;;13.70;99.90;;;;;;4893151;29;20486;-71
2023/10/27 14:30:02;;;;;;;0.93;0.50;;;13.70;99.90;;;;;;4898275;29;20451;-71
2023/10/27 14:32:30;;;;;;;0.60;0.10;;;13.80;99.90;;;;;;4898347;29;20828;-70
2023/10/27 14:34:59;;;;;;;0.70;0.40;;;13.90;99.90;;;;;;4894147;29;20582;-70
2023/10/27 14:37:27;;;;;;;0.53;0.20;;;14.10;99.90;;;;;;4892629;29;20507;-71
2023/10/27 14:39:59;;;;;;;0.60;0.20;;;14.20;99.90;;;;;;4878820;29;20902;-71
2023/10/27 14:42:27;;;;;;;0.60;0.40;;;14.30;99.90;;;;;;4884007;29;20482;-71
2023/10/27 14:44:55;;;;;;;0.80;0.40;;;14.20;99.90;;;;;;4898112;29;20449;-72
2023/10/27 14:47:23;;;;;;;0.60;0.30;;;14.30;99.90;;;;;;4897273;29;21014;-71
2023/10/27 14:50:10;;;;;;;0.60;0.17;;;14.30;99.90;;;;;;4896136;29;20471;-73
2023/10/27 14:52:38;;;;;;;0.60;0.10;;;14.50;99.90;;;;;;4895429;29;20568;-71
2023/10/27 14:55:08;;;;;;;0.60;0.10;;;14.40;99.90;;;;;;4894243;29;20932;-72
2023/10/27 14:57:37;;;;;;;2.40;1.03;;;14.60;99.90;;;;;;4897901;29;20965;-71
2023/10/27 15:00:10;;;;;;;1.20;0.50;;;;;;;;;;4880230;29;20489;-72
2023/10/27 15:02:38;;;;;;;0.60;0.10;;;;;;;;;;4879280;29;20840;-73
2023/10/27 15:05:06;;;;;;;0.83;0.60;;;14.70;99.90;;;;;;4879234;29;20845;-73
2023/10/27 15:07:35;;;;;;;0.60;0.10;;;14.70;99.90;;;;;;4895072;29;21032;-72
2023/10/27 15:10:14;;;;;;;15.73;2.30;;;14.80;99.90;;;;;;4897103;29;20488;-72
2023/10/27 15:12:43;;;;;;;0.60;0.20;;;14.70;99.90;;;;;;4893628;29;20524;-75
2023/10/27 15:15:11;;;;;;;0.70;0.30;;;14.80;99.90;;;;;;4893121;29;20461;-72
2023/10/27 15:17:39;;;;;;;0.60;0.10;;;;;;;;;;4892316;29;20729;-72
2023/10/27 15:20:08;;;;;;;0.70;0.30;;;14.90;99.90;;;;;;4896534;29;20488;-72
2023/10/27 15:22:36;;;;;;;0.60;0.10;;;14.80;99.90;;;;;;4897499;29;20503;-72
2023/10/27 15:25:06;;;;;;;0.77;0.27;;;14.70;99.90;;;;;;4896667;29;21022;-72
2023/10/27 15:27:35;;;;;;;0.60;0.27;;;14.70;99.90;;;;;;4884906;29;20483;-75
2023/10/27 15:30:06;;;;;;;0.60;0.10;;;14.60;99.90;;;;;;4891896;29;20456;-73
2023/10/27 15:32:34;;;;;;;1.00;0.90;;;14.60;99.90;;;;;;4888849;29;20531;-71
2023/10/27 15:35:02;;;;;;;1.00;0.50;;;14.60;99.90;;;;;;4893050;29;20452;-72
2023/10/27 15:37:30;;;;;;;0.60;0.10;;;14.70;99.90;;;;;;4887975;29;20528;-71
2023/10/27 15:39:59;;;;;;;1.13;0.57;;;14.60;99.90;;;;;;4884989;29;20448;-73
2023/10/27 15:42:27;;;;;;;0.60;0.10;;;14.70;99.90;;;;;;4890795;29;20587;-73
2023/10/27 15:44:59;;;;;;;1.00;0.60;;;14.70;99.90;;;;;;4895949;29;20517;-72
2023/10/27 15:47:29;;;;;;;0.93;0.60;;;14.70;99.90;;;;;;4896092;29;20472;-71
2023/10/27 15:49:57;;;;;;;0.60;0.20;;;13.10;99.90;;;;;;4889022;29;20445;-71
2023/10/27 15:52:25;;;;;;;0.60;0.10;;;14.70;99.90;;;;;;4889544;29;20481;-71
2023/10/27 15:54:53;;;;;;;0.60;0.10;;;14.70;99.90;;;;;;4889352;29;20875;-72
2023/10/27 15:57:21;;;;;;;0.60;0.17;;;14.70;99.90;;;;;;4891937;29;20551;-70
2023/10/27 15:59:49;;;;;;;0.60;0.20;;;14.70;99.90;;;;;;4888295;29;20472;-71
2023/10/27 16:02:17;;;;;;;0.60;0.10;;;14.80;99.90;;;;;;4895511;29;20528;-71
2023/10/27 16:04:46;;;;;;;0.60;0.10;;;;;;;;;;4896398;29;20516;-70
2023/10/27 16:07:14;;;;;;;0.57;0.10;;;14.70;99.90;;;;;;4896061;29;20452;-70
2023/10/27 16:09:42;;;;;;;0.60;0.10;;;14.70;99.90;;;;;;4894427;29;20460;-71
2023/10/27 16:12:10;;;;;;;0.60;0.10;;;;;;;;;;4895406;29;20928;-71
2023/10/27 16:14:38;;;;;;;0.60;0.10;;;14.60;99.90;;;;;;4891086;29;20880;-71
2023/10/27 16:17:07;;;;;;;1.57;0.23;;;14.60;99.90;;;;;;4893293;29;20460;-71
2023/10/27 16:19:37;;;;;;;0.60;0.23;;;14.40;99.90;;;;;;4895453;29;20455;-71
2023/10/27 16:22:06;;;;;;;0.60;0.10;;;14.40;99.90;;;;;;4895370;29;20511;-72
2023/10/27 16:24:36;;;;;;;1.07;0.93;;;14.40;99.90;;;;;;4895431;29;20461;-72
2023/10/27 16:27:04;;;;;;;0.60;0.23;;;14.40;99.90;;;;;;4881170;29;20795;-71
2023/10/27 16:29:33;;;;;;;0.60;0.20;;;14.30;99.90;;;;;;4889614;29;21028;-71
2023/10/27 16:32:00;;;;;;;0.70;0.30;;;14.30;99.90;;;;;;4886705;29;20474;-72
2023/10/27 16:34:29;;;;;;;0.60;0.17;;;;;;;;;;4891139;29;20497;-72
2023/10/27 16:36:56;;;;;;;1.00;0.40;;;14.10;99.90;;;;;;4896233;29;20463;-72
2023/10/27 16:39:26;;;;;;;0.60;0.37;;;14.20;99.90;;;;;;4895278;29;20562;-72
2023/10/27 16:41:54;;;;;;;1.00;0.50;;;14.10;99.90;;;;;;4894359;29;20496;-74
2023/10/27 16:44:24;;;;;;;0.60;0.20;;;14.00;99.90;;;;;;4894529;29;20467;-71
2023/10/27 16:46:53;;;;;;;0.67;0.43;;;14.00;99.90;;;;;;4895045;29;20451;-72
2023/10/27 16:49:21;;;;;;;0.60;0.40;;;13.90;99.90;;;;;;4895408;29;20483;-73
2023/10/27 16:51:52;;;;;;;2.00;0.57;;;13.80;99.90;;;;;;4895638;29;20449;-73
2023/10/27 16:54:21;;;;;;;0.60;0.10;;;13.80;99.90;;;;;;4896203;29;20523;-72
2023/10/27 16:56:50;;;;;;;0.60;0.10;;;13.80;99.90;;;;;;4895627;29;20869;-71
2023/10/27 16:59:19;;;;;;;0.70;0.30;;;13.70;99.90;;;;;;4895922;29;20461;-73
2023/10/27 17:01:47;;;;;;;0.93;0.40;;;;;;;;;;4895516;29;21010;-73
2023/10/27 17:04:15;;;;;;;0.60;0.20;;;13.70;99.90;;;;;;4895543;29;20468;-72
2023/10/27 17:06:45;;;;;;;0.60;0.10;;;13.60;99.90;;;;;;4895683;29;20523;-73
2023/10/27 17:09:14;;;;;;;0.60;0.20;;;;;;;;;;4895813;29;20462;-71
2023/10/27 17:11:42;;;;;;;0.70;0.50;;;13.40;99.90;;;;;;4899594;29;20446;-73